Alfonso Bonilla Aragon International Airport
SKCL : now visible

Airfield :











YOU CAN JOIN US ON...

 
LOGIN :

Register | Disclaimer

   EN    FR    IT 

 









Legend :    VFR   Marginal VFR   IFR   Intensive IFR   Very Intensive IFR
Visi :
Ceiling :
>= 8 km
>= 3000ft
5 to 8 km
1000 to 3000 ft
1500m to 5 km
500 to 1000 ft
800 to 1500m
200 to 500 ft
< 800m
< 200 ft
Symbols :   Thunderstorms  Fog  Heavy snow  Heavy precipitations  Wind > 20 kt






- Airport Elevation : 3162 ft
- IATA code : CLO


SKCL - Alfonso Bonilla Aragon International

CURRENT METAR :
  • 082000Z 30012KT 9999 SCT020TCU 28/18 A2992 NOSIG RMK TCU NE

EXPIRED METARs :
  • 081900Z 36003KT 9999 VCSH SCT020TCU 29/18 A2994 BECMGFM1910 32012KT
  • 081800Z 02003KT 9999 SCT020TCU 30/18 A2997 NOSIG RMK TCU W/SW SE

TAF TAF SKCL
Valid from the 08 at 18:00 until the 09 at 18:00 UTC


081630Z 0818/0918 34008KT 9999 SCT020 SCT250
TEMPO 0820/0824 SCT018TCU
BECMG 0901/0902 03004KT FEW017 BKN100
TEMPO 0911/0914 7000 VCFG TX31/0819Z TN19/0911Z



MET'MAP, your aeronautical weather chart ! - Copyright ORBIFLY December 2007 - Disclaimer

ORBIFLY MET'MAP TEAM :

Programming & Development : Alexandra Zaïnal
Concept & original design : Baudouin d'Aumeries
Assistance for programming : Marc-Olivier Méhu
Technical & hardware support : Manuel Goepfert

Contact : metmap@orbifly.com




SOURCES & CREDITS :

   NOAA       Earth
Advisory